createdAt,value
2022-12-19T00:02:53.960Z,29.43
2022-12-19T00:07:59.047Z,29.20
2022-12-19T00:13:07.892Z,26.20
2022-12-19T00:18:11.480Z,28.30
2022-12-19T00:23:19.692Z,31.80
2022-12-19T00:28:23.644Z,30.00
2022-12-19T00:33:27.167Z,28.83
2022-12-19T00:38:32.211Z,30.97
2022-12-19T00:43:35.914Z,27.50
2022-12-19T00:48:40.148Z,33.10
2022-12-19T00:53:45.724Z,29.63
2022-12-19T00:58:49.808Z,27.50
2022-12-19T01:04:26.468Z,25.00
2022-12-19T01:09:21.662Z,26.73
2022-12-19T01:14:26.260Z,26.00
2022-12-19T01:19:30.182Z,29.73
2022-12-19T01:24:35.153Z,31.30
2022-12-19T01:29:51.966Z,31.03
2022-12-19T01:34:56.443Z,29.13
2022-12-19T01:40:01.379Z,30.40
2022-12-19T01:45:21.634Z,27.40
2022-12-19T01:50:28.685Z,26.37
2022-12-19T01:55:35.055Z,27.00
2022-12-19T02:00:38.614Z,30.00
2022-12-19T02:05:45.913Z,30.37
2022-12-19T02:10:51.659Z,29.87
2022-12-19T02:16:03.719Z,24.60
2022-12-19T02:21:37.653Z,23.77
2022-12-19T02:27:06.909Z,27.57
2022-12-19T02:32:19.347Z,30.70
2022-12-19T02:37:28.187Z,28.00
2022-12-19T02:42:37.117Z,31.63
2022-12-19T02:47:43.582Z,24.80
2022-12-19T02:52:48.994Z,27.53
2022-12-19T02:58:24.540Z,25.50
2022-12-19T03:03:38.821Z,24.37
2022-12-19T03:08:50.129Z,25.17
2022-12-19T03:13:58.236Z,27.57
2022-12-19T03:19:04.387Z,27.13
2022-12-19T03:24:09.474Z,28.50
2022-12-19T03:29:18.423Z,27.40
2022-12-19T03:34:29.577Z,28.57
2022-12-19T03:39:34.951Z,30.10
2022-12-19T03:44:41.997Z,25.73
2022-12-19T03:49:48.300Z,27.37
2022-12-19T03:54:56.794Z,27.63
2022-12-19T04:00:06.528Z,25.73
2022-12-19T04:05:21.015Z,28.50
2022-12-19T04:10:28.188Z,23.73
2022-12-19T04:15:36.189Z,29.27
2022-12-19T04:20:45.367Z,26.97
2022-12-19T04:25:52.746Z,26.93
2022-12-19T04:30:58.066Z,28.03
2022-12-19T04:36:03.021Z,27.20
2022-12-19T04:41:07.192Z,24.37
2022-12-19T04:46:10.879Z,28.37
2022-12-19T04:51:17.106Z,27.07
2022-12-19T04:56:20.665Z,23.93
2022-12-19T05:01:24.394Z,26.97
2022-12-19T05:06:29.546Z,22.83
2022-12-19T05:11:33.159Z,27.57
2022-12-19T05:16:36.939Z,27.03
2022-12-19T05:21:42.327Z,26.90
2022-12-19T05:26:45.946Z,30.33
2022-12-19T05:31:49.644Z,27.63
2022-12-19T05:36:54.621Z,24.47
2022-12-19T05:42:01.196Z,26.03
2022-12-19T05:47:04.865Z,27.20
2022-12-19T05:52:09.860Z,23.83
2022-12-19T05:57:13.677Z,26.80
2022-12-19T06:02:17.522Z,23.53
2022-12-19T06:07:23.065Z,21.30
2022-12-19T06:12:26.743Z,21.27
2022-12-19T06:17:31.000Z,21.77
2022-12-19T06:22:36.001Z,21.73
2022-12-19T06:27:39.562Z,23.50
2022-12-19T06:32:43.210Z,22.03
2022-12-19T06:37:50.442Z,23.70
2022-12-19T06:42:54.030Z,27.70
2022-12-19T06:47:59.862Z,23.80
2022-12-19T06:53:07.938Z,21.70
2022-12-19T06:58:11.626Z,20.07
2022-12-19T07:03:18.995Z,21.63
2022-12-19T07:08:23.995Z,18.90
2022-12-19T07:13:28.130Z,18.97
2022-12-19T07:18:35.757Z,18.07
2022-12-19T07:23:41.729Z,19.47
2022-12-19T07:28:45.477Z,18.70
2022-12-19T07:33:49.109Z,19.83
2022-12-19T07:38:54.026Z,23.83
2022-12-19T07:43:57.716Z,20.93
2022-12-19T07:49:01.461Z,20.57
2022-12-19T07:54:07.201Z,21.10
2022-12-19T07:59:12.985Z,18.53
2022-12-19T08:04:16.846Z,22.43
2022-12-19T08:09:21.801Z,21.97
2022-12-19T08:14:25.479Z,24.43
2022-12-19T08:19:29.537Z,19.67
2022-12-19T08:24:34.563Z,22.57
2022-12-19T08:29:38.517Z,20.00
2022-12-19T08:34:42.163Z,21.40
2022-12-19T08:39:47.152Z,17.80
2022-12-19T08:44:50.695Z,19.57
2022-12-19T08:49:54.614Z,14.10
2022-12-19T08:54:59.519Z,14.97
2022-12-19T09:00:03.504Z,20.60
2022-12-19T09:05:52.854Z,17.83
2022-12-19T09:10:37.214Z,16.77
2022-12-19T09:15:40.886Z,20.83
2022-12-19T09:20:46.035Z,18.83
2022-12-19T09:25:51.195Z,18.10
2022-12-19T09:30:58.710Z,21.70
2022-12-19T09:36:03.040Z,19.13
2022-12-19T09:41:34.747Z,18.93
2022-12-19T09:46:47.597Z,17.97
2022-12-19T09:52:00.253Z,20.67
2022-12-19T09:57:11.773Z,16.37
2022-12-19T10:02:28.288Z,17.17
2022-12-19T10:08:01.425Z,17.30
2022-12-19T10:13:12.837Z,18.10
2022-12-19T10:18:33.969Z,17.73
2022-12-19T10:24:02.474Z,15.60
2022-12-19T10:29:22.599Z,15.33
2022-12-19T10:34:34.197Z,17.37
2022-12-19T10:39:55.038Z,17.00
2022-12-19T10:45:05.776Z,18.07
2022-12-19T10:50:13.939Z,15.63
2022-12-19T10:55:34.094Z,14.70
2022-12-19T11:00:45.674Z,18.43
2022-12-19T11:05:58.321Z,19.30
2022-12-19T11:13:20.132Z,16.57
2022-12-19T11:22:20.642Z,15.67
2022-12-19T11:29:30.742Z,15.43
2022-12-19T11:30:48.179Z,15.07
2022-12-19T11:33:16.707Z,15.70
2022-12-19T11:38:37.040Z,17.63
2022-12-19T11:43:48.948Z,17.93
2022-12-19T11:48:56.762Z,16.70
2022-12-19T11:54:07.374Z,16.20
2022-12-19T11:59:17.782Z,13.37
2022-12-19T12:04:56.482Z,15.03
2022-12-19T12:16:03.089Z,12.47
2022-12-19T12:25:16.003Z,13.60
2022-12-19T12:31:16.553Z,14.60
2022-12-19T12:31:42.626Z,13.60
2022-12-19T12:35:28.854Z,15.70
2022-12-19T12:38:25.585Z,13.70
2022-12-19T12:43:44.076Z,14.77
2022-12-19T12:48:52.824Z,12.87
2022-12-19T12:54:03.411Z,15.07
2022-12-19T12:59:20.812Z,16.73
2022-12-19T13:04:31.316Z,16.50
2022-12-19T13:09:37.745Z,14.53
2022-12-19T13:14:47.850Z,13.97
2022-12-19T13:19:56.639Z,15.57
2022-12-19T13:25:02.258Z,13.27
2022-12-19T13:30:18.670Z,15.23
2022-12-19T13:39:46.530Z,13.17
2022-12-19T13:41:23.264Z,14.27
2022-12-19T13:46:39.669Z,10.97
2022-12-19T13:51:52.987Z,11.43
2022-12-19T13:57:00.624Z,13.37
2022-12-19T14:02:21.577Z,14.97
2022-12-19T14:07:43.394Z,11.17
2022-12-19T14:14:01.450Z,11.70
2022-12-19T14:18:42.935Z,11.93
2022-12-19T14:23:49.806Z,9.83
2022-12-19T14:28:57.877Z,11.80
2022-12-19T14:34:35.461Z,9.73
2022-12-19T14:39:30.736Z,12.00
2022-12-19T14:54:04.125Z,12.57
2022-12-19T14:54:07.606Z,12.00
2022-12-19T14:56:34.818Z,10.37
2022-12-19T15:01:33.969Z,7.97
2022-12-19T15:07:08.848Z,9.37
2022-12-19T15:14:49.588Z,9.20
2022-12-19T15:17:57.500Z,9.63
2022-12-19T15:23:01.093Z,10.63
2022-12-19T15:28:12.918Z,8.70
2022-12-19T15:33:18.855Z,7.77
2022-12-19T15:38:22.510Z,8.53
2022-12-19T15:44:02.097Z,8.93
2022-12-19T15:48:51.565Z,9.57
2022-12-19T15:54:04.214Z,10.40
2022-12-19T15:59:37.890Z,7.47
2022-12-19T16:04:43.523Z,8.57
2022-12-19T16:09:49.800Z,11.07
2022-12-19T16:14:58.889Z,8.70
2022-12-19T16:20:03.884Z,9.50
2022-12-19T16:25:07.932Z,7.20
2022-12-19T16:30:19.659Z,8.57
2022-12-19T16:35:55.011Z,7.53
2022-12-19T16:40:53.414Z,5.93
2022-12-19T16:46:01.117Z,6.73
2022-12-19T16:51:10.897Z,6.40
2022-12-19T16:56:23.599Z,5.03
2022-12-19T17:01:27.386Z,7.40
2022-12-19T17:06:32.358Z,5.00
2022-12-19T17:11:36.200Z,6.67
2022-12-19T17:16:40.038Z,6.03
2022-12-19T17:21:45.719Z,7.90
2022-12-19T17:26:49.419Z,5.90
2022-12-19T17:31:53.095Z,8.33
2022-12-19T17:36:58.475Z,8.33
2022-12-19T17:42:12.036Z,6.10
2022-12-19T17:47:17.129Z,6.00
2022-12-19T17:52:22.087Z,5.47
2022-12-19T17:57:27.024Z,5.50
2022-12-19T18:02:31.386Z,5.80
2022-12-19T18:07:36.602Z,4.77
2022-12-19T18:12:40.482Z,5.40
2022-12-19T18:17:45.330Z,4.70
2022-12-19T18:22:50.308Z,4.37
2022-12-19T18:27:54.428Z,4.17
2022-12-19T18:33:00.341Z,3.90
2022-12-19T18:38:08.809Z,4.17
2022-12-19T18:43:14.188Z,3.73
2022-12-19T18:48:25.120Z,5.93
2022-12-19T18:53:35.173Z,4.50
2022-12-19T18:58:39.856Z,4.20
2022-12-19T19:03:49.565Z,4.17
2022-12-19T19:08:56.758Z,4.77
2022-12-19T19:14:25.015Z,4.00
2022-12-19T19:19:28.608Z,4.50
2022-12-19T19:24:33.596Z,4.90
2022-12-19T19:29:37.261Z,4.57
2022-12-19T19:34:42.008Z,3.53
2022-12-19T19:39:47.688Z,3.33
2022-12-19T19:44:51.339Z,2.10
2022-12-19T19:49:56.572Z,2.60
2022-12-19T19:55:01.595Z,2.10
2022-12-19T20:00:07.382Z,6.17
2022-12-19T20:05:16.415Z,4.20
2022-12-19T20:10:21.373Z,3.83
2022-12-19T20:15:24.954Z,2.60
2022-12-19T20:20:28.911Z,2.83
2022-12-19T20:25:33.930Z,3.30
2022-12-19T20:30:38.091Z,4.60
2022-12-19T20:35:42.553Z,2.97
2022-12-19T20:40:48.309Z,2.73
2022-12-19T20:45:52.201Z,2.97
2022-12-19T20:50:57.460Z,3.47
2022-12-19T20:56:04.717Z,2.70
2022-12-19T21:01:10.640Z,3.90
2022-12-19T21:06:16.780Z,2.00
2022-12-19T21:11:22.475Z,3.67
2022-12-19T21:16:26.521Z,1.93
2022-12-19T21:21:30.264Z,2.30
2022-12-19T21:26:35.254Z,2.63
2022-12-19T21:31:38.872Z,2.37
2022-12-19T21:36:42.502Z,2.13
2022-12-19T21:41:47.492Z,2.17
2022-12-19T21:46:51.110Z,2.90
2022-12-19T21:51:54.751Z,1.60
2022-12-19T21:56:59.739Z,1.97
2022-12-19T22:02:03.517Z,2.00
2022-12-19T22:07:07.420Z,2.13
2022-12-19T22:12:13.911Z,2.17
2022-12-19T22:17:17.643Z,2.00
2022-12-19T22:22:21.317Z,2.20
2022-12-19T22:27:26.307Z,2.63
2022-12-19T22:32:31.042Z,2.77
2022-12-19T22:37:34.712Z,2.23
2022-12-19T22:42:40.112Z,2.27
2022-12-19T22:47:44.162Z,1.70
2022-12-19T22:52:47.762Z,1.50
2022-12-19T22:57:53.154Z,1.27
2022-12-19T23:02:56.926Z,1.30
2022-12-19T23:08:00.712Z,1.10
2022-12-19T23:13:06.175Z,1.53
2022-12-19T23:18:09.927Z,1.50
2022-12-19T23:23:13.602Z,1.60
2022-12-19T23:28:18.768Z,1.20
2022-12-19T23:33:22.377Z,1.30
2022-12-19T23:38:26.233Z,1.17
2022-12-19T23:43:32.388Z,1.17
2022-12-19T23:48:36.143Z,1.23
2022-12-19T23:53:40.255Z,1.40
2022-12-19T23:58:46.153Z,1.70
